createdAt,value
2019-06-07T00:01:23.390Z,101423.01
2019-06-07T00:04:27.302Z,101427.33
2019-06-07T00:07:31.141Z,101428.98
2019-06-07T00:10:36.961Z,101431.71
2019-06-07T00:13:40.826Z,101435.72
2019-06-07T00:16:44.694Z,101434.20
2019-06-07T00:19:48.658Z,101440.04
2019-06-07T00:22:52.612Z,101433.87
2019-06-07T00:25:56.439Z,101437.28
2019-06-07T00:29:00.329Z,101435.56
2019-06-07T00:32:04.361Z,101435.53
2019-06-07T00:35:09.111Z,101436.98
2019-06-07T00:38:14.265Z,101443.53
2019-06-07T00:41:20.235Z,101436.18
2019-06-07T00:44:23.821Z,101424.28
2019-06-07T00:47:27.733Z,101423.18
2019-06-07T00:50:31.540Z,101431.00
2019-06-07T00:53:35.521Z,101432.75
2019-06-07T00:56:39.436Z,101427.36
2019-06-07T00:59:43.452Z,101441.31
2019-06-07T01:02:48.491Z,101441.87
2019-06-07T01:05:52.451Z,101438.80
2019-06-07T01:08:56.275Z,101443.53
2019-06-07T01:12:00.098Z,101439.67
2019-06-07T01:15:04.201Z,101437.86
2019-06-07T01:21:15.828Z,101437.61
2019-06-07T01:24:20.082Z,101432.63
2019-06-07T01:27:25.530Z,101438.29
2019-06-07T01:30:30.119Z,101441.60
2019-06-07T01:33:50.427Z,101442.73
2019-06-07T01:36:39.533Z,101439.33
2019-06-07T01:39:43.380Z,101449.16
2019-06-07T01:42:47.225Z,101440.22
2019-06-07T01:45:51.108Z,101435.09
2019-06-07T01:48:55.117Z,101432.78
2019-06-07T01:51:59.015Z,101440.45
2019-06-07T01:55:02.905Z,101437.30
2019-06-07T01:58:06.835Z,101441.78
2019-06-07T02:01:10.696Z,101436.45
2019-06-07T02:04:14.609Z,101439.94
2019-06-07T02:07:20.355Z,101439.77
2019-06-07T02:10:27.705Z,101436.13
2019-06-07T02:13:30.780Z,101432.27
2019-06-07T02:16:34.883Z,101428.28
2019-06-07T02:19:38.704Z,101423.24
2019-06-07T02:22:42.537Z,101429.87
2019-06-07T02:25:50.411Z,101428.00
2019-06-07T02:28:52.089Z,101422.85
2019-06-07T02:31:55.921Z,101421.30
2019-06-07T02:34:59.781Z,101426.67
2019-06-07T02:38:03.648Z,101421.22
2019-06-07T02:41:07.719Z,101417.66
2019-06-07T02:44:11.599Z,101420.67
2019-06-07T02:47:15.531Z,101419.33
2019-06-07T02:50:20.018Z,101418.36
2019-06-07T02:53:25.646Z,101405.77
2019-06-07T02:56:53.921Z,101406.37
2019-06-07T03:00:04.300Z,101403.41
2019-06-07T03:02:41.729Z,101401.58
2019-06-07T03:05:47.987Z,101404.13
2019-06-07T03:08:52.652Z,101399.55
2019-06-07T03:11:59.721Z,101401.95
2019-06-07T03:15:04.540Z,101406.36
2019-06-07T03:18:15.348Z,101408.45
2019-06-07T03:21:22.017Z,101411.77
2019-06-07T03:24:31.030Z,101414.06
2019-06-07T03:27:40.630Z,101406.91
2019-06-07T03:30:57.110Z,101406.35
2019-06-07T03:33:45.544Z,101400.94
2019-06-07T03:36:49.146Z,101405.79
2019-06-07T03:39:52.966Z,101403.60
2019-06-07T03:42:56.803Z,101401.53
2019-06-07T03:46:00.702Z,101406.87
2019-06-07T03:49:04.538Z,101410.84
2019-06-07T03:52:08.440Z,101419.28
2019-06-07T03:55:12.434Z,101416.59
2019-06-07T03:58:36.669Z,101418.84
2019-06-07T04:01:21.917Z,101420.92
2019-06-07T04:04:25.815Z,101422.58
2019-06-07T04:07:31.176Z,101430.98
2019-06-07T04:10:53.420Z,101433.21
2019-06-07T04:13:42.782Z,101431.05
2019-06-07T04:16:46.688Z,101429.73
2019-06-07T04:19:50.519Z,101431.46
2019-06-07T04:22:54.347Z,101427.99
2019-06-07T04:25:58.177Z,101423.11
2019-06-07T04:29:32.251Z,101425.16
2019-06-07T04:32:07.766Z,101433.15
2019-06-07T04:35:11.680Z,101425.16
2019-06-07T04:38:16.065Z,101430.84
2019-06-07T04:41:22.789Z,101422.85
2019-06-07T04:44:26.618Z,101424.13
2019-06-07T04:47:33.809Z,101422.34
2019-06-07T04:50:41.129Z,101423.12
2019-06-07T04:53:43.606Z,101427.17
2019-06-07T04:56:47.432Z,101436.50
2019-06-07T05:02:58.570Z,101438.23
2019-06-07T05:06:02.433Z,101438.22
2019-06-07T05:09:07.144Z,101436.03
2019-06-07T05:12:10.986Z,101444.33
2019-06-07T05:15:15.167Z,101445.35
2019-06-07T05:18:19.020Z,101441.06
2019-06-07T05:21:22.834Z,101448.34
2019-06-07T05:24:26.803Z,101441.45
2019-06-07T05:27:33.577Z,101436.27
2019-06-07T05:33:43.836Z,101443.79
2019-06-07T05:37:10.127Z,101434.82
2019-06-07T05:39:53.307Z,101437.48
2019-06-07T05:42:57.263Z,101430.07
2019-06-07T05:46:01.187Z,101414.65
2019-06-07T05:49:04.998Z,101414.00
2019-06-07T05:52:08.818Z,101408.22
2019-06-07T05:55:12.709Z,101408.27
2019-06-07T05:58:16.746Z,101395.10
2019-06-07T06:01:43.051Z,101389.22
2019-06-07T06:04:29.416Z,101382.37
2019-06-07T06:07:35.809Z,101382.02
2019-06-07T06:10:40.352Z,101386.80
2019-06-07T06:14:05.332Z,101392.14
2019-06-07T06:16:50.289Z,101392.95
2019-06-07T06:19:54.220Z,101398.71
2019-06-07T06:22:58.201Z,101405.04
2019-06-07T06:26:02.376Z,101412.98
2019-06-07T06:29:06.809Z,101425.75
2019-06-07T06:35:16.624Z,101444.79
2019-06-07T06:38:20.525Z,101440.13
2019-06-07T06:41:24.353Z,101446.80
2019-06-07T06:44:31.967Z,101447.61
2019-06-07T06:47:35.950Z,101442.88
2019-06-07T06:50:41.083Z,101436.54
2019-06-07T06:53:46.872Z,101443.59
2019-06-07T06:56:52.788Z,101446.27
2019-06-07T06:59:58.664Z,101447.22
2019-06-07T07:03:46.992Z,101449.45
2019-06-07T07:06:25.308Z,101446.04
2019-06-07T07:09:14.826Z,101444.39
2019-06-07T07:12:20.500Z,101447.41
2019-06-07T07:15:24.350Z,101451.98
2019-06-07T07:19:15.945Z,101441.77
2019-06-07T07:22:19.840Z,101447.00
2019-06-07T07:25:23.683Z,101445.16
2019-06-07T07:28:30.426Z,101440.19
2019-06-07T07:31:52.349Z,101441.09
2019-06-07T07:35:13.951Z,101445.80
2019-06-07T07:38:29.601Z,101446.89
2019-06-07T07:42:13.762Z,101442.89
2019-06-07T07:44:56.913Z,101442.58
2019-06-07T07:48:14.642Z,101443.98
2019-06-07T07:51:06.589Z,101446.68
2019-06-07T07:54:11.327Z,101452.45
2019-06-07T07:57:15.374Z,101439.05
2019-06-07T08:00:50.406Z,101430.34
2019-06-07T08:03:25.499Z,101432.67
2019-06-07T08:06:29.347Z,101438.71
2019-06-07T08:09:33.285Z,101437.59
2019-06-07T08:13:00.472Z,101431.42
2019-06-07T08:15:42.921Z,101431.06
2019-06-07T08:18:50.921Z,101427.02
2019-06-07T08:21:53.061Z,101428.69
2019-06-07T08:24:59.939Z,101418.53
2019-06-07T08:28:02.690Z,101420.59
2019-06-07T08:31:07.839Z,101425.05
2019-06-07T08:34:12.129Z,101427.94
2019-06-07T08:37:15.958Z,101423.73
2019-06-07T08:40:21.747Z,101419.72
2019-06-07T08:43:25.642Z,101423.81
2019-06-07T08:46:29.462Z,101425.89
2019-06-07T08:49:33.465Z,101420.05
2019-06-07T08:52:37.430Z,101423.14
2019-06-07T08:55:41.439Z,101429.34
2019-06-07T08:58:45.295Z,101429.85
2019-06-07T09:01:49.169Z,101425.12
2019-06-07T09:04:56.426Z,101426.80
2019-06-07T09:08:22.282Z,101424.51
2019-06-07T09:11:10.131Z,101427.88
2019-06-07T09:14:10.216Z,101424.95
2019-06-07T09:17:14.094Z,101421.52
2019-06-07T09:20:35.774Z,101419.63
2019-06-07T09:23:25.778Z,101410.95
2019-06-07T09:26:30.475Z,101408.80
2019-06-07T09:29:34.759Z,101402.63
2019-06-07T09:32:38.611Z,101398.77
2019-06-07T09:35:42.717Z,101397.64
2019-06-07T09:38:47.962Z,101399.85
2019-06-07T09:41:51.836Z,101395.77
2019-06-07T09:44:57.017Z,101396.25
2019-06-07T09:48:04.387Z,101398.27
2019-06-07T09:51:18.657Z,101393.02
2019-06-07T09:55:02.407Z,101388.11
2019-06-07T09:57:18.200Z,101381.33
2019-06-07T10:00:39.746Z,101379.40
2019-06-07T10:03:27.850Z,101370.57
2019-06-07T10:06:31.773Z,101365.98
2019-06-07T10:10:09.971Z,101364.28
2019-06-07T10:12:41.314Z,101354.48
2019-06-07T10:15:45.187Z,101357.55
2019-06-07T10:18:49.129Z,101349.64
2019-06-07T10:21:53.027Z,101352.83
2019-06-07T10:24:56.856Z,101343.87
2019-06-07T10:28:01.815Z,101343.77
2019-06-07T10:31:07.787Z,101341.64
2019-06-07T10:34:11.654Z,101346.19
2019-06-07T10:37:16.005Z,101333.83
2019-06-07T10:40:20.298Z,101329.95
2019-06-07T10:43:24.222Z,101335.77
2019-06-07T10:46:29.143Z,101335.86
2019-06-07T10:49:33.389Z,101327.76
2019-06-07T10:52:37.335Z,101335.36
2019-06-07T10:55:44.494Z,101325.52
2019-06-07T10:58:48.424Z,101323.20
2019-06-07T11:01:52.571Z,101323.61
2019-06-07T11:04:56.653Z,101327.08
2019-06-07T11:08:00.853Z,101324.19
2019-06-07T11:11:06.017Z,101317.05
2019-06-07T11:14:10.613Z,101310.84
2019-06-07T11:17:15.774Z,101317.04
2019-06-07T11:20:20.307Z,101312.61
2019-06-07T11:23:24.230Z,101317.02
2019-06-07T11:26:28.081Z,101317.02
2019-06-07T11:29:31.890Z,101306.42
2019-06-07T11:32:39.615Z,101296.89
2019-06-07T11:35:43.455Z,101284.42
2019-06-07T11:38:47.319Z,101276.47
2019-06-07T11:41:51.255Z,101270.52
2019-06-07T11:44:57.064Z,101274.19
2019-06-07T11:48:00.768Z,101262.92
2019-06-07T11:51:04.774Z,101259.66
2019-06-07T11:54:09.678Z,101263.67
2019-06-07T11:57:15.068Z,101264.14
2019-06-07T12:00:20.692Z,101258.44
2019-06-07T12:03:24.500Z,101258.44
2019-06-07T12:06:29.200Z,101251.34
2019-06-07T12:09:33.082Z,101248.30
2019-06-07T12:12:37.067Z,101248.89
2019-06-07T12:15:40.900Z,101254.11
2019-06-07T12:18:44.846Z,101251.59
2019-06-07T12:21:48.659Z,101248.81
2019-06-07T12:24:52.477Z,101251.00
2019-06-07T12:27:56.289Z,101238.92
2019-06-07T12:31:00.087Z,101231.20
2019-06-07T12:34:04.085Z,101226.95
2019-06-07T12:37:07.997Z,101231.99
2019-06-07T12:40:22.976Z,101224.94
2019-06-07T12:43:19.104Z,101222.23
2019-06-07T12:46:26.823Z,101210.11
2019-06-07T12:49:28.762Z,101204.84
2019-06-07T12:52:32.581Z,101211.15
2019-06-07T12:55:36.481Z,101206.66
2019-06-07T12:58:40.304Z,101209.14
2019-06-07T13:01:44.304Z,101209.14
2019-06-07T13:04:48.196Z,101205.12
2019-06-07T13:07:52.055Z,101205.94
2019-06-07T13:10:55.894Z,101203.91
2019-06-07T13:13:59.801Z,101199.22
2019-06-07T13:17:03.712Z,101186.09
2019-06-07T13:20:08.569Z,101191.70
2019-06-07T13:23:12.432Z,101187.05
2019-06-07T13:26:16.942Z,101176.50
2019-06-07T13:29:22.583Z,101184.66
2019-06-07T13:32:28.070Z,101169.35
2019-06-07T13:35:32.156Z,101158.59
2019-06-07T13:38:35.972Z,101170.02
2019-06-07T13:41:42.938Z,101170.02
2019-06-07T13:44:45.412Z,101169.80
2019-06-07T13:47:49.334Z,101170.99
2019-06-07T13:50:53.244Z,101163.36
2019-06-07T13:53:57.046Z,101161.08
2019-06-07T13:57:02.968Z,101161.58
2019-06-07T14:00:10.846Z,101152.82
2019-06-07T14:03:13.718Z,101144.04
2019-06-07T14:06:18.830Z,101148.69
2019-06-07T14:09:23.297Z,101148.66
2019-06-07T14:12:27.824Z,101150.98
2019-06-07T14:15:34.426Z,101153.54
2019-06-07T14:18:37.389Z,101135.84
2019-06-07T14:21:41.238Z,101129.97
2019-06-07T14:24:45.091Z,101125.17
2019-06-07T14:27:48.920Z,101139.77
2019-06-07T14:30:52.775Z,101126.97
2019-06-07T14:33:56.701Z,101126.97
2019-06-07T14:37:00.520Z,101131.13
2019-06-07T14:40:04.863Z,101143.96
2019-06-07T14:43:08.672Z,101147.31
2019-06-07T14:46:12.618Z,101141.47
2019-06-07T14:49:16.430Z,101144.27
2019-06-07T14:52:20.325Z,101146.58
2019-06-07T14:55:25.097Z,101146.58
2019-06-07T14:58:29.427Z,101146.67
2019-06-07T15:01:33.635Z,101138.34
2019-06-07T15:04:41.382Z,101119.94
2019-06-07T15:07:45.226Z,101121.34
2019-06-07T15:10:49.104Z,101117.92
2019-06-07T15:13:53.019Z,101115.37
2019-06-07T15:16:56.833Z,101113.61
2019-06-07T15:20:00.759Z,101103.25
2019-06-07T15:23:04.658Z,101098.34
2019-06-07T15:26:08.568Z,101096.74
2019-06-07T15:29:12.425Z,101086.50
2019-06-07T15:32:16.428Z,101089.95
2019-06-07T15:35:20.406Z,101089.61
2019-06-07T15:38:24.228Z,101085.96
2019-06-07T15:41:28.954Z,101075.20
2019-06-07T15:44:33.378Z,101078.70
2019-06-07T15:47:38.365Z,101070.79
2019-06-07T15:50:42.653Z,101062.19
2019-06-07T15:53:46.507Z,101057.50
2019-06-07T15:56:50.319Z,101057.03
2019-06-07T15:59:54.192Z,101067.07
2019-06-07T16:02:58.008Z,101049.48
2019-06-07T16:06:01.922Z,101046.63
2019-06-07T16:09:07.589Z,101036.06
2019-06-07T16:12:11.528Z,101036.45
2019-06-07T16:15:16.075Z,101030.63
2019-06-07T16:18:19.926Z,101031.50
2019-06-07T16:21:23.753Z,101031.72
2019-06-07T16:24:28.531Z,101027.02
2019-06-07T16:27:36.914Z,101023.66
2019-06-07T16:30:41.165Z,101015.04
2019-06-07T16:33:45.232Z,101008.36
2019-06-07T16:36:49.259Z,101014.53
2019-06-07T16:39:53.172Z,101014.38
2019-06-07T16:43:13.327Z,101010.33
2019-06-07T16:46:05.048Z,101023.27
2019-06-07T16:49:08.987Z,101016.63
2019-06-07T16:52:19.403Z,101014.30
2019-06-07T16:55:23.501Z,101015.62
2019-06-07T16:58:31.722Z,101012.73
2019-06-07T17:01:36.874Z,101001.00
2019-06-07T17:04:41.619Z,100987.14
2019-06-07T17:07:48.806Z,100983.59
2019-06-07T17:10:52.990Z,100973.84
2019-06-07T17:13:57.002Z,100974.56
2019-06-07T17:17:00.953Z,100973.10
2019-06-07T17:20:08.826Z,100956.30
2019-06-07T17:23:12.939Z,100962.02
2019-06-07T17:26:19.222Z,100947.88
2019-06-07T17:29:25.923Z,100942.84
2019-06-07T17:32:29.904Z,100941.60
2019-06-07T17:35:59.827Z,100935.67
2019-06-07T17:39:06.728Z,100943.26
2019-06-07T17:42:10.900Z,100942.10
2019-06-07T17:45:22.948Z,100936.27
2019-06-07T17:48:45.543Z,100936.60
2019-06-07T17:51:52.199Z,100927.10
2019-06-07T17:54:59.539Z,100924.80
2019-06-07T17:58:08.845Z,100932.90
2019-06-07T18:01:12.731Z,100924.50
2019-06-07T18:04:16.848Z,100926.40
2019-06-07T18:07:22.315Z,100922.30
2019-06-07T18:10:37.470Z,100907.52
2019-06-07T18:13:46.085Z,100904.03
2019-06-07T18:16:50.566Z,100903.94
2019-06-07T18:19:55.283Z,100908.72
2019-06-07T18:22:59.313Z,100902.87
2019-06-07T18:26:03.248Z,100908.14
2019-06-07T18:29:07.160Z,100908.59
2019-06-07T18:32:13.516Z,100918.09
2019-06-07T18:35:16.932Z,100921.81
2019-06-07T18:38:21.068Z,100925.59
2019-06-07T18:41:25.024Z,100927.64
2019-06-07T18:44:28.921Z,100926.39
2019-06-07T18:47:32.861Z,100920.41
2019-06-07T18:50:36.991Z,100918.27
2019-06-07T18:53:40.957Z,100915.19
2019-06-07T18:56:44.914Z,100911.28
2019-06-07T18:59:50.100Z,100898.81
2019-06-07T19:02:54.099Z,100898.81
2019-06-07T19:05:58.323Z,100893.38
2019-06-07T19:09:02.327Z,100892.80
2019-06-07T19:12:06.157Z,100899.52
2019-06-07T19:15:12.058Z,100903.33
2019-06-07T19:18:16.149Z,100894.02
2019-06-07T19:21:20.040Z,100889.73
2019-06-07T19:24:23.989Z,100888.02
2019-06-07T19:27:27.943Z,100881.16
2019-06-07T19:30:31.888Z,100873.98
2019-06-07T19:33:48.446Z,100875.89
2019-06-07T19:36:48.659Z,100874.17
2019-06-07T19:39:47.197Z,100885.84
2019-06-07T19:42:52.160Z,100897.02
2019-06-07T19:45:56.249Z,100897.74
2019-06-07T19:49:00.841Z,100898.45
2019-06-07T19:52:04.944Z,100903.95
2019-06-07T19:55:10.068Z,100908.36
2019-06-07T19:58:14.584Z,100914.54
2019-06-07T20:01:23.353Z,100908.47
2019-06-07T20:04:29.309Z,100902.88
2019-06-07T20:07:33.643Z,100907.00
2019-06-07T20:10:40.128Z,100910.73
2019-06-07T20:13:44.144Z,100910.00
2019-06-07T20:16:48.260Z,100911.13
2019-06-07T20:19:52.329Z,100925.08
2019-06-07T20:22:56.556Z,100930.36
2019-06-07T20:26:00.966Z,100929.39
2019-06-07T20:29:14.523Z,100920.73
2019-06-07T20:32:12.273Z,100912.86
2019-06-07T20:35:16.649Z,100911.41
2019-06-07T20:38:20.699Z,100910.72
2019-06-07T20:41:25.949Z,100916.11
2019-06-07T20:44:30.104Z,100890.79
2019-06-07T20:47:35.867Z,100853.00
2019-06-07T20:50:40.281Z,100838.92
2019-06-07T20:53:44.471Z,100837.02
2019-06-07T20:56:48.445Z,100852.05
2019-06-07T20:59:56.175Z,100883.70
2019-06-07T21:03:01.112Z,100879.91
2019-06-07T21:06:05.565Z,100861.05
2019-06-07T21:09:09.920Z,100867.30
2019-06-07T21:12:13.814Z,100861.54
2019-06-07T21:15:18.164Z,100861.14
2019-06-07T21:18:22.213Z,100856.33
2019-06-07T21:21:26.394Z,100848.69
2019-06-07T21:24:30.384Z,100849.59
2019-06-07T21:27:34.290Z,100847.19
2019-06-07T21:30:38.311Z,100839.31
2019-06-07T21:33:42.430Z,100835.53
2019-06-07T21:36:46.625Z,100823.08
2019-06-07T21:39:50.870Z,100831.12
2019-06-07T21:42:56.394Z,100831.89
2019-06-07T21:46:05.347Z,100823.63
2019-06-07T21:49:08.493Z,100814.19
2019-06-07T21:52:12.946Z,100807.48
2019-06-07T21:55:17.871Z,100789.36
2019-06-07T21:58:22.463Z,100798.79
2019-06-07T22:01:30.927Z,100797.72
2019-06-07T22:04:35.278Z,100791.42
2019-06-07T22:07:39.268Z,100812.91
2019-06-07T22:10:43.188Z,100819.38
2019-06-07T22:13:47.151Z,100827.97
2019-06-07T22:16:51.102Z,100832.77
2019-06-07T22:19:55.829Z,100824.27
2019-06-07T22:22:59.896Z,100834.52
2019-06-07T22:26:11.328Z,100855.77
2019-06-07T22:29:15.491Z,100853.94
2019-06-07T22:32:21.439Z,100843.84
2019-06-07T22:35:27.195Z,100841.93
2019-06-07T22:38:32.811Z,100827.66
2019-06-07T22:41:36.981Z,100821.33
2019-06-07T22:44:44.049Z,100825.86
2019-06-07T22:47:48.294Z,100831.67
2019-06-07T22:50:52.541Z,100834.69
2019-06-07T22:53:56.817Z,100833.34
2019-06-07T22:57:07.800Z,100859.03
2019-06-07T23:00:14.339Z,100852.22
2019-06-07T23:03:19.087Z,100861.20
2019-06-07T23:06:25.591Z,100886.45
2019-06-07T23:09:33.277Z,100894.05
2019-06-07T23:12:38.704Z,100902.22
2019-06-07T23:15:42.974Z,100904.68
2019-06-07T23:18:47.022Z,100912.17
2019-06-07T23:21:51.117Z,100912.25
2019-06-07T23:24:59.417Z,100899.24
2019-06-07T23:28:10.231Z,100904.77
2019-06-07T23:31:14.475Z,100900.36
2019-06-07T23:34:18.823Z,100901.20
2019-06-07T23:37:23.068Z,100889.62
2019-06-07T23:40:26.953Z,100877.55
2019-06-07T23:43:30.974Z,100860.59
2019-06-07T23:46:34.907Z,100825.34
2019-06-07T23:49:38.958Z,100829.99
2019-06-07T23:52:43.103Z,100811.23
2019-06-07T23:55:46.985Z,100808.33
2019-06-07T23:58:51.192Z,100807.16
